Time;durP1;ratioP1;P1;durP2;ratioP2;P2;SDS_P1;SDS_P2;PMS_P1;PMS_P2;Temp;Humidity;BMP_temperature;BMP_pressure;BME280_temperature;BME280_humidity;BME280_pressure;Samples;Min_cycle;Max_cycle;Signal;HPM_P1;HPM_P2
2023/08/10 00:00:16;;;;;;;8.20;3.07;;;13.10;90.50;;;;;;5068791;28;20568;-70
2023/08/10 00:02:45;;;;;;;6.30;2.83;;;13.10;90.30;;;;;;5057899;28;20044;-70
2023/08/10 00:05:11;;;;;;;4.80;2.97;;;13.10;90.60;;;;;;5054924;28;20294;-69
2023/08/10 00:07:37;;;;;;;5.47;3.33;;;13.10;90.50;;;;;;5065055;28;20279;-70
2023/08/10 00:10:04;;;;;;;5.13;3.10;;;13.10;90.60;;;;;;5059715;28;20337;-70
2023/08/10 00:12:30;;;;;;;5.50;3.03;;;13.10;90.60;;;;;;5065833;28;20044;-69
2023/08/10 00:14:56;;;;;;;7.50;3.07;;;13.20;91.00;;;;;;5060454;28;20704;-69
2023/08/10 00:17:22;;;;;;;4.37;2.73;;;13.20;90.70;;;;;;5058241;28;20075;-70
2023/08/10 00:19:48;;;;;;;5.33;2.83;;;13.20;90.80;;;;;;5066609;28;20334;-70
2023/08/10 00:22:14;;;;;;;5.23;3.37;;;13.20;90.80;;;;;;5041477;28;20029;-69
2023/08/10 00:24:40;;;;;;;5.43;2.67;;;13.20;90.50;;;;;;5058138;28;20048;-69
2023/08/10 00:27:06;;;;;;;6.93;3.20;;;13.20;90.40;;;;;;5053804;28;20803;-69
2023/08/10 00:29:32;;;;;;;5.27;2.87;;;13.20;90.50;;;;;;5054658;28;20033;-69
2023/08/10 00:31:58;;;;;;;7.40;3.30;;;13.20;90.80;;;;;;5055181;28;20279;-69
2023/08/10 00:34:24;;;;;;;8.27;3.20;;;13.20;91.00;;;;;;5056862;28;20622;-69
2023/08/10 00:36:50;;;;;;;6.73;2.93;;;13.20;91.10;;;;;;5056097;28;20291;-69
2023/08/10 00:39:17;;;;;;;7.10;2.40;;;13.20;91.20;;;;;;5065255;28;20048;-69
2023/08/10 00:41:43;;;;;;;7.50;2.63;;;13.20;91.00;;;;;;5067016;28;20798;-69
2023/08/10 00:44:09;;;;;;;5.80;2.33;;;13.20;91.20;;;;;;5059722;28;20287;-69
2023/08/10 00:46:36;;;;;;;5.90;2.87;;;13.30;91.20;;;;;;5063385;28;20649;-69
2023/08/10 00:49:03;;;;;;;10.57;2.60;;;13.30;91.20;;;;;;5061351;28;20043;-69
2023/08/10 00:51:29;;;;;;;5.50;2.23;;;13.30;91.10;;;;;;5052767;28;20405;-69
2023/08/10 00:53:55;;;;;;;9.00;2.50;;;13.20;91.10;;;;;;5064775;28;20599;-69
2023/08/10 00:56:21;;;;;;;6.80;2.80;;;13.20;91.20;;;;;;5061945;28;20284;-69
2023/08/10 00:58:48;;;;;;;8.00;2.40;;;13.20;91.20;;;;;;5067490;28;20118;-69
2023/08/10 01:01:14;;;;;;;6.67;2.30;;;13.10;91.20;;;;;;5067226;28;20298;-69
2023/08/10 01:03:40;;;;;;;5.17;2.50;;;13.00;91.40;;;;;;5053858;28;20282;-69
2023/08/10 01:06:17;;;;;;;5.43;1.97;;;13.00;91.40;;;;;;5062883;28;20493;-69
2023/08/10 01:09:06;;;;;;;6.23;2.30;;;12.90;91.40;;;;;;5064939;28;20040;-69
2023/08/10 01:12:02;;;;;;;4.93;2.23;;;12.80;91.40;;;;;;5066905;28;20281;-70
2023/08/10 01:15:11;;;;;;;5.15;2.45;;;12.70;91.20;;;;;;5054158;28;20416;-69
2023/08/10 01:17:43;;;;;;;7.47;2.70;;;12.60;91.30;;;;;;5047815;28;20175;-69
2023/08/10 01:20:11;;;;;;;8.00;2.90;;;12.50;91.30;;;;;;5061908;28;20286;-69
2023/08/10 01:22:49;;;;;;;6.37;2.30;;;12.40;91.50;;;;;;5057655;28;20303;-69
2023/08/10 01:25:16;;;;;;;7.13;2.30;;;12.30;91.60;;;;;;5057662;28;20727;-69
2023/08/10 01:27:43;;;;;;;6.33;2.67;;;12.20;91.60;;;;;;5039462;28;20279;-69
2023/08/10 01:30:10;;;;;;;7.37;2.80;;;12.10;91.80;;;;;;5034726;28;20842;-69
2023/08/10 01:32:36;;;;;;;7.07;2.97;;;12.10;91.80;;;;;;5060960;28;20295;-69
2023/08/10 01:35:05;;;;;;;5.53;2.70;;;12.00;92.10;;;;;;5060625;28;20818;-69
2023/08/10 01:37:35;;;;;;;5.60;2.63;;;11.90;92.10;;;;;;5061447;28;20279;-69
2023/08/10 01:40:01;;;;;;;6.97;3.30;;;11.80;92.20;;;;;;5049403;28;20299;-69
2023/08/10 01:42:28;;;;;;;6.73;3.33;;;11.80;92.60;;;;;;5050651;28;20292;-69
2023/08/10 01:44:53;;;;;;;9.10;3.70;;;11.70;92.90;;;;;;5065696;28;20072;-69
2023/08/10 01:47:31;;;;;;;7.87;3.23;;;11.70;93.00;;;;;;5064008;28;20318;-70
2023/08/10 01:50:00;;;;;;;8.80;3.00;;;11.60;93.10;;;;;;5065483;28;20086;-69
2023/08/10 01:52:36;;;;;;;7.10;3.07;;;11.60;93.60;;;;;;5067062;28;20281;-69
2023/08/10 01:55:02;;;;;;;6.60;3.13;;;11.60;93.50;;;;;;5065413;28;20290;-69
2023/08/10 01:57:29;;;;;;;8.73;3.53;;;11.60;93.80;;;;;;5058317;28;20279;-70
2023/08/10 01:59:56;;;;;;;8.00;3.90;;;11.50;93.80;;;;;;5041808;28;20360;-70
2023/08/10 02:02:21;;;;;;;7.03;3.00;;;11.50;94.10;;;;;;5052132;28;20891;-70
2023/08/10 02:04:47;;;;;;;6.77;3.37;;;11.50;94.40;;;;;;5053449;28;20279;-70
2023/08/10 02:07:13;;;;;;;7.27;3.43;;;11.50;94.70;;;;;;5054900;28;20525;-70
2023/08/10 02:09:40;;;;;;;9.30;3.90;;;11.40;94.70;;;;;;5065273;28;20048;-70
2023/08/10 02:12:06;;;;;;;6.90;3.50;;;11.40;94.60;;;;;;5062853;28;20339;-70
2023/08/10 02:14:32;;;;;;;9.20;3.70;;;11.40;94.40;;;;;;5052968;28;20279;-70
2023/08/10 02:16:57;;;;;;;8.70;3.80;;;11.30;94.90;;;;;;5058074;28;20298;-70
2023/08/10 02:19:23;;;;;;;9.77;4.17;;;11.30;94.90;;;;;;5064970;28;20045;-70
2023/08/10 02:21:49;;;;;;;6.33;4.10;;;11.30;95.00;;;;;;5056980;28;20047;-70
2023/08/10 02:24:15;;;;;;;6.33;4.30;;;11.40;95.10;;;;;;5067113;28;20033;-70
2023/08/10 02:26:41;;;;;;;7.50;3.60;;;11.40;95.30;;;;;;5049689;28;20286;-70
2023/08/10 02:29:06;;;;;;;7.10;3.27;;;11.40;95.30;;;;;;5064874;28;20502;-70
2023/08/10 02:31:32;;;;;;;6.97;3.20;;;11.50;95.40;;;;;;5064831;28;20051;-70
2023/08/10 02:33:58;;;;;;;8.53;3.40;;;11.50;95.60;;;;;;5052890;28;20085;-70
2023/08/10 02:36:24;;;;;;;7.27;3.13;;;11.60;95.50;;;;;;5059084;28;20040;-70
2023/08/10 02:38:49;;;;;;;6.03;3.50;;;11.60;95.50;;;;;;5059124;28;20123;-70
2023/08/10 02:41:15;;;;;;;7.83;2.90;;;11.70;95.50;;;;;;5068200;28;20037;-70
2023/08/10 02:43:41;;;;;;;6.60;3.17;;;11.70;95.60;;;;;;5058975;28;20052;-70
2023/08/10 02:46:06;;;;;;;8.83;3.70;;;11.80;95.80;;;;;;5068652;28;20316;-70
2023/08/10 02:48:33;;;;;;;6.27;3.20;;;11.80;95.80;;;;;;5065898;28;20051;-70
2023/08/10 02:50:59;;;;;;;7.80;3.70;;;11.90;95.80;;;;;;5055833;28;20275;-70
2023/08/10 02:53:25;;;;;;;7.47;3.13;;;12.00;95.90;;;;;;5055725;28;20091;-70
2023/08/10 02:55:50;;;;;;;8.10;3.23;;;12.10;96.00;;;;;;5066532;28;20412;-70
2023/08/10 02:58:16;;;;;;;9.30;3.60;;;12.10;95.90;;;;;;5052654;28;20115;-70
2023/08/10 03:00:42;;;;;;;9.13;3.50;;;12.20;95.90;;;;;;5061978;28;20040;-70
2023/08/10 03:03:08;;;;;;;5.63;3.50;;;12.20;96.00;;;;;;5056583;28;20037;-70
2023/08/10 03:05:34;;;;;;;8.27;3.50;;;12.30;95.80;;;;;;5051199;28;20041;-70
2023/08/10 03:08:00;;;;;;;6.13;3.40;;;12.30;95.90;;;;;;5067309;28;20275;-70
2023/08/10 03:10:26;;;;;;;7.30;3.10;;;12.40;95.80;;;;;;5063658;28;20647;-70
2023/08/10 03:12:52;;;;;;;5.97;2.83;;;12.40;95.80;;;;;;5067354;28;20049;-70
2023/08/10 03:15:17;;;;;;;6.97;3.17;;;12.50;95.80;;;;;;5065986;28;20059;-70
2023/08/10 03:17:44;;;;;;;6.03;3.17;;;12.50;95.90;;;;;;5063160;28;20045;-70
2023/08/10 03:20:16;;;;;;;7.23;3.27;;;12.60;95.80;;;;;;5060520;28;20040;-70
2023/08/10 03:22:43;;;;;;;5.67;3.00;;;12.60;95.80;;;;;;5068958;28;20387;-70
2023/08/10 03:25:09;;;;;;;7.23;3.33;;;12.60;95.80;;;;;;5052375;28;20290;-70
2023/08/10 03:27:35;;;;;;;10.27;3.33;;;12.70;95.80;;;;;;5069025;28;20286;-70
2023/08/10 03:30:02;;;;;;;6.87;3.00;;;12.70;95.60;;;;;;5052990;28;20294;-70
2023/08/10 03:32:28;;;;;;;5.60;2.60;;;12.80;95.70;;;;;;5062421;28;20801;-70
2023/08/10 03:34:54;;;;;;;5.80;3.17;;;12.80;95.70;;;;;;5068131;28;20283;-70
2023/08/10 03:37:20;;;;;;;10.10;2.90;;;12.90;95.60;;;;;;5069446;28;20123;-70
2023/08/10 03:39:45;;;;;;;6.07;2.90;;;12.90;95.60;;;;;;5067684;28;20037;-70
2023/08/10 03:42:11;;;;;;;7.00;3.30;;;12.90;95.50;;;;;;5044388;28;20484;-70
2023/08/10 03:44:37;;;;;;;4.83;3.20;;;13.00;95.50;;;;;;5061320;28;20032;-70
2023/08/10 03:47:02;;;;;;;7.13;2.57;;;13.00;95.40;;;;;;5059889;28;20087;-70
2023/08/10 03:49:28;;;;;;;4.83;2.80;;;13.00;95.40;;;;;;5059815;28;20063;-70
2023/08/10 03:51:54;;;;;;;7.13;2.50;;;13.00;95.30;;;;;;5057471;28;20040;-70
2023/08/10 03:54:20;;;;;;;5.17;2.40;;;13.00;95.20;;;;;;5061343;28;20076;-70
2023/08/10 03:56:45;;;;;;;5.63;2.60;;;13.00;95.10;;;;;;5068861;28;20456;-70
2023/08/10 03:59:11;;;;;;;5.50;2.80;;;13.10;95.10;;;;;;5069424;28;20056;-70
2023/08/10 04:01:37;;;;;;;6.53;3.00;;;13.10;95.20;;;;;;5054731;28;20073;-70
2023/08/10 04:04:03;;;;;;;8.13;2.93;;;13.10;95.30;;;;;;5055310;28;20546;-70
2023/08/10 04:06:29;;;;;;;5.97;2.67;;;13.10;95.20;;;;;;5068782;28;20041;-70
2023/08/10 04:08:55;;;;;;;6.97;2.90;;;13.10;95.20;;;;;;5054923;28;20359;-70
2023/08/10 04:11:21;;;;;;;3.93;2.27;;;13.20;95.00;;;;;;5067454;28;20278;-70
2023/08/10 04:13:46;;;;;;;5.17;2.70;;;13.20;95.00;;;;;;5063633;28;20562;-70
2023/08/10 04:16:12;;;;;;;5.30;2.80;;;13.20;95.00;;;;;;5041606;28;20052;-70
2023/08/10 04:18:39;;;;;;;5.97;2.67;;;13.30;95.10;;;;;;5063729;28;20040;-70
2023/08/10 04:21:05;;;;;;;6.30;2.67;;;13.30;95.00;;;;;;5052302;28;20387;-70
2023/08/10 04:23:30;;;;;;;7.40;3.20;;;13.30;94.90;;;;;;5057449;28;20283;-71
2023/08/10 04:25:56;;;;;;;5.83;2.30;;;13.40;95.10;;;;;;5055093;28;20681;-70
2023/08/10 04:28:23;;;;;;;7.17;2.53;;;13.40;95.00;;;;;;5050527;28;20044;-70
2023/08/10 04:30:49;;;;;;;7.87;2.97;;;13.40;94.90;;;;;;5049768;28;20068;-70
2023/08/10 04:33:15;;;;;;;3.47;2.00;;;13.40;95.00;;;;;;5068480;28;20387;-70
2023/08/10 04:35:41;;;;;;;5.17;2.20;;;13.50;94.80;;;;;;5061193;28;20200;-70
2023/08/10 04:38:06;;;;;;;6.23;2.60;;;13.50;94.80;;;;;;5062283;28;20689;-70
2023/08/10 04:40:32;;;;;;;8.10;3.03;;;13.50;94.80;;;;;;5055507;28;20029;-70
2023/08/10 04:42:59;;;;;;;4.67;2.43;;;13.60;94.80;;;;;;5055387;28;20473;-70
2023/08/10 04:45:25;;;;;;;4.60;2.10;;;13.60;94.70;;;;;;5039842;28;20302;-70
2023/08/10 04:47:51;;;;;;;3.63;2.00;;;13.70;94.70;;;;;;5062296;28;20277;-70
2023/08/10 04:50:17;;;;;;;4.77;2.30;;;13.70;94.40;;;;;;5057718;28;20867;-70
2023/08/10 04:52:43;;;;;;;6.93;2.70;;;13.70;94.40;;;;;;5054275;28;20484;-70
2023/08/10 04:55:10;;;;;;;7.43;2.30;;;13.80;94.30;;;;;;5054047;28;20059;-70
2023/08/10 04:57:37;;;;;;;4.20;1.50;;;13.90;94.20;;;;;;5054975;28;20485;-70
2023/08/10 05:00:09;;;;;;;5.97;1.93;;;13.90;94.10;;;;;;5064213;28;20833;-70
2023/08/10 05:02:35;;;;;;;6.67;2.20;;;14.00;94.00;;;;;;5048010;28;20604;-70
2023/08/10 05:05:02;;;;;;;4.77;2.23;;;14.00;94.10;;;;;;5054633;28;20286;-70
2023/08/10 05:07:28;;;;;;;5.77;1.97;;;14.10;93.90;;;;;;5054354;28;20283;-70
2023/08/10 05:09:55;;;;;;;4.13;2.57;;;14.10;93.90;;;;;;5049849;28;20345;-70
2023/08/10 05:12:21;;;;;;;4.67;2.13;;;14.20;93.80;;;;;;5052071;28;20041;-70
2023/08/10 05:14:47;;;;;;;6.40;2.27;;;14.20;93.80;;;;;;5038435;28;20318;-70
2023/08/10 05:17:12;;;;;;;7.60;2.30;;;14.30;93.70;;;;;;5058850;28;20295;-70
2023/08/10 05:19:38;;;;;;;4.63;2.30;;;14.40;93.60;;;;;;5056017;28;20032;-69
2023/08/10 05:22:04;;;;;;;4.87;2.10;;;14.50;93.60;;;;;;5055854;28;20664;-69
2023/08/10 05:24:32;;;;;;;3.63;1.73;;;14.60;93.70;;;;;;5055877;28;20116;-69
2023/08/10 05:26:58;;;;;;;4.53;2.07;;;14.60;93.60;;;;;;5039704;28;20094;-69
2023/08/10 05:29:23;;;;;;;5.27;2.30;;;14.70;93.40;;;;;;5055684;28;20324;-69
2023/08/10 05:31:50;;;;;;;4.03;2.13;;;14.80;93.30;;;;;;5057586;28;20298;-69
2023/08/10 05:34:15;;;;;;;3.07;1.77;;;14.90;93.20;;;;;;5058056;28;20105;-69
2023/08/10 05:36:41;;;;;;;5.50;2.20;;;15.00;93.00;;;;;;5048656;28;20783;-69
2023/08/10 05:39:08;;;;;;;4.33;1.80;;;15.00;93.10;;;;;;5047406;28;20048;-69
2023/08/10 05:41:34;;;;;;;3.93;1.93;;;15.10;93.00;;;;;;5049191;28;20052;-69
2023/08/10 05:43:59;;;;;;;6.50;2.53;;;15.20;93.10;;;;;;5049823;28;20283;-69
2023/08/10 05:46:25;;;;;;;5.37;2.00;;;15.30;93.00;;;;;;5050543;28;20029;-69
2023/08/10 05:48:51;;;;;;;4.10;2.20;;;15.30;92.90;;;;;;5051302;28;20508;-69
2023/08/10 05:51:17;;;;;;;7.00;2.20;;;15.40;92.70;;;;;;5048898;28;20523;-69
2023/08/10 05:53:42;;;;;;;7.20;2.20;;;15.50;92.50;;;;;;5054456;28;20082;-69
2023/08/10 05:56:08;;;;;;;5.50;2.00;;;15.60;92.30;;;;;;5050591;28;20044;-69
2023/08/10 05:58:34;;;;;;;3.37;1.60;;;15.60;92.30;;;;;;5048263;28;20068;-69
2023/08/10 06:01:01;;;;;;;4.37;2.33;;;15.70;92.20;;;;;;5048193;28;20045;-69
2023/08/10 06:03:27;;;;;;;7.00;2.20;;;15.80;92.10;;;;;;5053798;28;20792;-69
2023/08/10 06:05:54;;;;;;;5.07;2.00;;;15.90;91.90;;;;;;5046690;28;20351;-69
2023/08/10 06:08:19;;;;;;;2.93;1.87;;;16.00;91.90;;;;;;5050914;28;20319;-69
2023/08/10 06:10:49;;;;;;;8.83;1.90;;;16.20;91.60;;;;;;5054728;28;20830;-69
2023/08/10 06:13:17;;;;;;;4.07;2.50;;;16.30;91.30;;;;;;5063876;28;20040;-69
2023/08/10 06:15:47;;;;;;;6.87;2.50;;;16.50;90.80;;;;;;5056389;28;20270;-69
2023/08/10 06:18:13;;;;;;;5.30;2.53;;;16.70;90.30;;;;;;5056095;28;20286;-69
2023/08/10 06:20:40;;;;;;;6.87;3.13;;;16.90;89.50;;;;;;5063167;28;20302;-69
2023/08/10 06:23:06;;;;;;;9.00;3.00;;;17.10;87.90;;;;;;5051463;28;20325;-69
2023/08/10 06:25:32;;;;;;;5.93;3.00;;;17.20;87.40;;;;;;5047236;28;20295;-69
2023/08/10 06:27:58;;;;;;;7.77;3.63;;;17.20;86.90;;;;;;5053822;28;20305;-69
2023/08/10 06:30:25;;;;;;;5.10;2.23;;;17.20;86.80;;;;;;5055080;28;20044;-69
2023/08/10 06:32:51;;;;;;;6.37;2.10;;;17.20;87.10;;;;;;5056555;28;20375;-69
2023/08/10 06:35:19;;;;;;;4.70;1.90;;;17.10;86.70;;;;;;5069104;28;20366;-70
2023/08/10 06:37:45;;;;;;;7.07;1.73;;;17.10;86.50;;;;;;5059851;28;20267;-69
2023/08/10 06:40:15;;;;;;;5.47;1.90;;;17.10;86.70;;;;;;5064711;28;20802;-69
2023/08/10 06:42:41;;;;;;;4.83;1.60;;;17.20;86.70;;;;;;5057512;28;20136;-69
2023/08/10 06:45:08;;;;;;;7.47;1.80;;;17.20;86.00;;;;;;5058319;28;20806;-69
2023/08/10 06:47:37;;;;;;;3.03;1.80;;;17.30;86.20;;;;;;5053925;28;20316;-69
2023/08/10 10:06:47;;;;;;;2.73;0.80;;;22.10;62.00;;;;;;5089105;22;1373440;-72
2023/08/10 10:09:13;;;;;;;5.23;1.00;;;22.10;62.00;;;;;;5066779;28;20044;-71
2023/08/10 10:11:39;;;;;;;2.20;0.73;;;22.10;63.20;;;;;;5062162;28;20031;-72
2023/08/10 10:14:06;;;;;;;2.43;0.80;;;22.10;63.40;;;;;;5063544;28;20036;-72
2023/08/10 10:16:34;;;;;;;3.53;0.77;;;22.10;62.70;;;;;;5068674;28;20069;-72
2023/08/10 10:19:00;;;;;;;5.87;0.90;;;22.20;63.50;;;;;;5046753;28;20075;-71
2023/08/10 10:21:26;;;;;;;5.47;1.67;;;22.30;63.90;;;;;;5054682;28;20040;-71
2023/08/10 10:23:55;;;;;;;2.10;1.00;;;22.40;63.30;;;;;;5062263;28;20096;-71
2023/08/10 10:26:20;;;;;;;8.40;1.50;;;22.60;63.70;;;;;;5064529;28;20186;-72
2023/08/10 10:29:13;;;;;;;4.20;1.77;;;22.80;63.40;;;;;;5063566;28;20181;-72
2023/08/10 10:31:39;;;;;;;4.67;1.80;;;22.90;62.90;;;;;;5047308;28;20487;-72
2023/08/10 10:34:05;;;;;;;4.80;2.10;;;23.00;63.30;;;;;;5035882;28;20032;-72
2023/08/10 10:36:34;;;;;;;4.63;1.63;;;23.10;62.60;;;;;;5042306;28;20040;-72
2023/08/10 10:39:11;;;;;;;4.20;2.13;;;23.10;63.30;;;;;;5054109;28;20047;-72
2023/08/10 10:41:40;;;;;;;5.53;1.60;;;23.10;63.40;;;;;;5054814;28;20037;-72
2023/08/10 10:44:08;;;;;;;4.30;1.57;;;23.00;63.60;;;;;;5056159;28;20036;-72
2023/08/10 10:46:33;;;;;;;5.53;2.03;;;23.00;64.70;;;;;;5060622;28;20489;-72
2023/08/10 10:49:00;;;;;;;4.83;2.20;;;22.90;63.90;;;;;;5058096;28;20074;-72
2023/08/10 10:51:28;;;;;;;4.50;1.83;;;22.90;64.00;;;;;;5057382;28;20052;-72
2023/08/10 10:53:54;;;;;;;5.33;2.50;;;22.80;63.90;;;;;;5055822;28;20082;-72
2023/08/10 10:56:25;;;;;;;6.93;2.33;;;22.90;64.20;;;;;;5053381;28;20036;-72
2023/08/10 10:58:51;;;;;;;7.93;2.70;;;22.90;64.30;;;;;;5025001;28;20491;-71
2023/08/10 11:01:23;;;;;;;4.47;2.33;;;23.10;63.70;;;;;;5038343;28;20045;-72
2023/08/10 11:03:53;;;;;;;6.03;2.43;;;23.10;64.10;;;;;;5036231;28;20044;-72
2023/08/10 11:06:22;;;;;;;4.73;2.33;;;23.30;64.10;;;;;;5018689;28;20839;-72
2023/08/10 11:08:54;;;;;;;6.00;2.63;;;23.50;63.70;;;;;;5007271;28;20048;-72
2023/08/10 11:11:21;;;;;;;5.20;2.53;;;23.70;64.10;;;;;;5007459;28;20049;-72
2023/08/10 11:13:48;;;;;;;7.43;2.50;;;23.80;63.40;;;;;;5019952;28;20445;-72
2023/08/10 11:16:15;;;;;;;4.47;2.60;;;23.90;63.10;;;;;;5007773;28;20037;-72
2023/08/10 11:18:42;;;;;;;5.07;2.73;;;23.80;63.00;;;;;;5022476;28;20124;-72
2023/08/10 11:21:08;;;;;;;5.90;2.87;;;23.70;63.10;;;;;;5026910;28;20051;-72
2023/08/10 11:23:34;;;;;;;5.80;2.13;;;23.50;63.90;;;;;;5024121;28;20039;-72
2023/08/10 11:26:02;;;;;;;5.33;2.83;;;23.50;64.20;;;;;;5023889;28;20498;-70
2023/08/10 11:28:28;;;;;;;4.77;2.77;;;23.40;63.90;;;;;;5022164;28;20400;-70
2023/08/10 11:31:00;;;;;;;6.10;2.23;;;23.30;64.20;;;;;;5011035;28;20041;-70
2023/08/10 11:33:25;;;;;;;4.90;2.57;;;23.30;64.70;;;;;;5024481;28;20049;-70
2023/08/10 11:35:53;;;;;;;5.63;2.10;;;23.20;64.30;;;;;;5031018;28;20045;-70
2023/08/10 11:38:19;;;;;;;6.20;2.30;;;23.30;64.80;;;;;;5018964;28;20127;-70
2023/08/10 11:40:45;;;;;;;5.37;2.60;;;23.40;64.50;;;;;;5008130;28;20079;-70
2023/08/10 11:43:19;;;;;;;5.00;2.50;;;23.40;64.00;;;;;;5027436;28;20041;-72
2023/08/10 11:45:46;;;;;;;5.50;2.83;;;23.40;64.00;;;;;;5019792;28;20037;-70
2023/08/10 11:48:16;;;;;;;6.33;2.77;;;23.40;63.10;;;;;;5012256;28;20051;-71
2023/08/10 11:50:43;;;;;;;7.47;2.70;;;23.20;63.90;;;;;;5025512;28;20504;-72
2023/08/10 11:53:18;;;;;;;4.50;2.30;;;23.10;64.10;;;;;;5028237;28;20057;-71
2023/08/10 11:55:46;;;;;;;4.40;2.40;;;22.90;64.90;;;;;;5020290;28;20098;-71
2023/08/10 11:58:13;;;;;;;5.20;2.27;;;22.80;65.40;;;;;;5002099;28;20053;-72
2023/08/10 12:00:41;;;;;;;3.70;2.67;;;22.70;65.70;;;;;;5011609;28;20045;-72
2023/08/10 12:03:16;;;;;;;4.17;2.30;;;22.70;64.00;;;;;;5009099;28;20310;-72
2023/08/10 12:05:46;;;;;;;4.90;2.90;;;22.70;66.50;;;;;;5038289;28;20063;-72
2023/08/10 12:08:14;;;;;;;4.07;2.50;;;22.80;66.00;;;;;;5023210;28;20077;-72
2023/08/10 12:10:51;;;;;;;4.33;2.40;;;22.80;65.50;;;;;;5024684;28;20106;-71
2023/08/10 12:13:19;;;;;;;6.50;3.63;;;22.90;65.70;;;;;;5025435;28;20045;-73
2023/08/10 12:15:46;;;;;;;5.27;2.93;;;22.80;65.60;;;;;;5029817;28;20563;-72
2023/08/10 12:18:17;;;;;;;7.47;3.40;;;22.70;65.90;;;;;;5027089;28;20033;-72
2023/08/10 12:20:44;;;;;;;7.23;3.13;;;22.50;65.90;;;;;;5027436;28;20053;-72
2023/08/10 12:23:11;;;;;;;7.03;4.20;;;22.20;66.80;;;;;;5028306;28;20057;-72
2023/08/10 12:25:38;;;;;;;4.90;3.40;;;21.90;68.00;;;;;;5027257;28;20578;-73
2023/08/10 12:28:05;;;;;;;8.53;4.20;;;21.80;68.70;;;;;;5011478;28;20158;-73
2023/08/10 12:30:31;;;;;;;6.47;3.40;;;21.90;68.80;;;;;;5027835;28;20393;-72
2023/08/10 12:32:57;;;;;;;7.07;4.03;;;22.10;69.00;;;;;;5011127;28;20049;-72
2023/08/10 12:35:23;;;;;;;6.67;4.07;;;22.30;68.60;;;;;;5026144;28;20056;-71
2023/08/10 12:37:49;;;;;;;7.40;3.50;;;22.40;67.60;;;;;;5025209;28;20404;-73
2023/08/10 12:40:16;;;;;;;6.47;4.00;;;22.40;68.00;;;;;;5004597;28;20064;-73
2023/08/10 12:42:45;;;;;;;7.20;4.53;;;22.50;68.00;;;;;;5027703;28;20036;-72
2023/08/10 12:45:12;;;;;;;8.70;4.50;;;22.50;68.20;;;;;;5023039;28;20080;-72
2023/08/10 12:47:42;;;;;;;6.83;4.30;;;22.50;67.70;;;;;;5023633;28;20145;-72
2023/08/10 12:50:16;;;;;;;11.50;5.60;;;22.40;68.00;;;;;;5020437;28;20072;-71
2023/08/10 12:52:44;;;;;;;7.77;5.00;;;22.30;68.20;;;;;;5008503;28;20056;-72
2023/08/10 12:55:10;;;;;;;8.93;5.63;;;22.20;68.50;;;;;;5026394;28;20114;-72
2023/08/10 12:57:36;;;;;;;8.43;5.33;;;22.10;68.90;;;;;;5027612;28;20044;-73
2023/08/10 13:00:10;;;;;;;7.17;5.60;;;22.10;69.20;;;;;;5028838;28;20044;-73
2023/08/10 13:02:36;;;;;;;9.20;5.63;;;22.10;69.20;;;;;;5023429;28;20094;-71
2023/08/10 13:05:03;;;;;;;7.73;5.63;;;22.10;69.10;;;;;;5027850;28;20534;-72
2023/08/10 13:07:32;;;;;;;8.17;5.30;;;22.20;69.00;;;;;;5026263;28;20096;-72
2023/08/10 13:09:58;;;;;;;7.50;5.63;;;22.30;69.00;;;;;;5030255;28;20049;-72
2023/08/10 13:12:24;;;;;;;8.70;5.30;;;22.40;68.90;;;;;;5027183;28;20056;-72
2023/08/10 13:14:50;;;;;;;9.20;5.57;;;22.60;68.90;;;;;;5008744;28;20038;-73
2023/08/10 13:17:16;;;;;;;8.87;5.30;;;22.70;68.50;;;;;;5010870;28;20048;-72
2023/08/10 13:19:42;;;;;;;10.40;5.30;;;22.70;68.50;;;;;;5014483;28;20052;-72
2023/08/10 13:22:08;;;;;;;7.60;5.43;;;22.80;68.50;;;;;;5002270;28;20037;-72
2023/08/10 13:24:34;;;;;;;8.70;5.57;;;22.80;68.50;;;;;;5007308;28;20052;-72
2023/08/10 13:27:01;;;;;;;11.33;4.90;;;22.90;68.80;;;;;;5026244;28;20055;-74
2023/08/10 13:29:29;;;;;;;6.83;5.23;;;23.00;68.70;;;;;;5031748;28;20048;-71
2023/08/10 13:31:55;;;;;;;12.43;5.87;;;23.10;68.00;;;;;;5025838;28;20045;-73
2023/08/10 13:34:21;;;;;;;8.87;5.67;;;23.00;67.50;;;;;;5021621;28;20052;-72
2023/08/10 13:36:47;;;;;;;10.80;6.20;;;22.90;67.50;;;;;;5030062;28;20116;-72
2023/08/10 13:39:13;;;;;;;9.20;5.73;;;22.70;68.20;;;;;;5011340;28;20497;-72
2023/08/10 13:41:39;;;;;;;10.43;6.03;;;22.60;68.60;;;;;;5026031;28;20051;-72
2023/08/10 13:44:05;;;;;;;7.57;5.70;;;22.50;69.20;;;;;;5009762;28;20041;-72
2023/08/10 13:46:32;;;;;;;7.70;5.00;;;22.50;69.40;;;;;;5029091;28;20044;-72
2023/08/10 13:48:58;;;;;;;8.03;5.07;;;22.60;69.50;;;;;;5028944;28;20048;-72
2023/08/10 13:51:25;;;;;;;9.13;4.73;;;22.60;69.60;;;;;;5023870;28;20091;-72
2023/08/10 13:53:51;;;;;;;12.87;6.10;;;22.70;69.80;;;;;;5016028;28;20611;-72
2023/08/10 13:56:17;;;;;;;10.13;6.27;;;22.80;69.40;;;;;;5015263;28;20044;-73
2023/08/10 13:58:42;;;;;;;10.93;5.77;;;22.80;68.70;;;;;;5015005;28;20096;-72
2023/08/10 14:01:09;;;;;;;11.00;5.77;;;22.90;68.80;;;;;;5028294;28;20045;-72
2023/08/10 14:03:35;;;;;;;8.87;6.23;;;22.80;68.70;;;;;;5028553;28;20040;-73
2023/08/10 14:06:06;;;;;;;11.03;5.87;;;22.80;68.30;;;;;;5031471;28;20041;-72
2023/08/10 14:08:32;;;;;;;8.93;6.43;;;22.70;68.70;;;;;;5028977;28;20076;-73
2023/08/10 14:10:58;;;;;;;10.10;6.27;;;22.80;68.70;;;;;;5014731;28;20045;-72
2023/08/10 14:13:25;;;;;;;8.97;6.00;;;22.80;68.90;;;;;;5030988;28;20508;-72
2023/08/10 14:15:51;;;;;;;9.17;6.17;;;22.70;69.10;;;;;;5019070;28;20152;-72
2023/08/10 14:18:17;;;;;;;11.50;6.47;;;22.70;69.00;;;;;;5026330;28;20117;-72
2023/08/10 14:20:43;;;;;;;9.67;6.17;;;22.60;69.00;;;;;;5029640;28;20531;-72
2023/08/10 14:23:08;;;;;;;11.10;6.67;;;22.50;69.20;;;;;;5024708;28;20125;-71
2023/08/10 14:25:35;;;;;;;11.77;6.27;;;22.50;69.60;;;;;;5022836;28;20072;-71
2023/08/10 14:28:00;;;;;;;12.47;6.80;;;22.50;69.60;;;;;;5016813;28;20056;-71
2023/08/10 14:30:26;;;;;;;11.50;7.03;;;22.50;69.50;;;;;;5012314;28;20045;-71
2023/08/10 14:32:52;;;;;;;11.33;7.00;;;22.60;68.90;;;;;;5019456;28;20040;-71
2023/08/10 14:35:18;;;;;;;12.40;6.70;;;22.70;68.80;;;;;;5009896;28;20519;-71
2023/08/10 14:37:44;;;;;;;12.10;6.30;;;22.80;68.70;;;;;;5020130;28;20119;-71
2023/08/10 14:40:11;;;;;;;7.47;5.70;;;23.00;69.20;;;;;;5000640;28;20076;-71
2023/08/10 14:42:37;;;;;;;10.63;6.23;;;23.20;67.20;;;;;;5012508;28;20033;-71
2023/08/10 14:45:03;;;;;;;9.77;6.23;;;23.30;66.80;;;;;;5029373;28;20056;-71
2023/08/10 14:47:33;;;;;;;10.87;6.50;;;23.30;65.80;;;;;;5024822;28;20045;-71
2023/08/10 14:49:59;;;;;;;10.70;6.83;;;23.30;66.40;;;;;;5033260;28;20068;-71
2023/08/10 14:52:25;;;;;;;12.47;7.57;;;23.30;65.40;;;;;;5029837;28;20079;-71
2023/08/10 14:54:50;;;;;;;11.23;7.23;;;23.30;65.30;;;;;;5024859;28;20405;-71
2023/08/10 14:57:16;;;;;;;10.03;7.30;;;23.20;65.50;;;;;;5008786;28;20033;-71
2023/08/10 14:59:42;;;;;;;9.90;6.90;;;23.30;65.70;;;;;;5030012;28;20067;-71
2023/08/10 15:02:08;;;;;;;9.60;6.87;;;23.40;65.10;;;;;;5034750;28;20325;-71
2023/08/10 15:04:33;;;;;;;9.70;6.97;;;23.40;65.30;;;;;;5012572;28;20044;-71
2023/08/10 15:06:59;;;;;;;8.23;6.23;;;23.30;64.50;;;;;;5013602;28;20061;-71
2023/08/10 15:09:25;;;;;;;9.77;6.37;;;23.10;64.90;;;;;;5024750;28;20504;-71
2023/08/10 15:11:51;;;;;;;6.70;5.10;;;23.00;65.50;;;;;;5025188;28;20044;-71
2023/08/10 15:14:17;;;;;;;8.17;4.90;;;23.00;65.80;;;;;;5006102;28;20675;-71
2023/08/10 15:16:43;;;;;;;8.03;5.37;;;23.00;66.20;;;;;;5027447;28;20428;-71
2023/08/10 15:19:08;;;;;;;7.70;4.70;;;23.00;65.30;;;;;;5009910;28;20086;-71
2023/08/10 15:21:34;;;;;;;9.47;4.47;;;23.00;65.60;;;;;;5015444;28;20180;-70
2023/08/10 15:24:00;;;;;;;7.10;5.00;;;22.80;64.90;;;;;;5032923;28;20140;-70
2023/08/10 15:26:26;;;;;;;5.97;3.97;;;22.70;65.30;;;;;;5032874;28;20044;-70
2023/08/10 15:28:51;;;;;;;6.13;4.07;;;22.60;65.40;;;;;;5019054;28;20045;-70
2023/08/10 15:31:18;;;;;;;5.90;3.87;;;22.60;65.30;;;;;;5030886;28;20041;-70
2023/08/10 15:33:44;;;;;;;8.47;4.10;;;22.60;65.60;;;;;;5006038;28;20041;-70
2023/08/10 15:36:10;;;;;;;6.90;3.53;;;22.60;65.30;;;;;;5031178;28;20118;-70
2023/08/10 15:38:37;;;;;;;5.00;3.37;;;22.70;65.10;;;;;;5048767;28;20101;-70
2023/08/10 15:41:04;;;;;;;6.17;4.00;;;22.70;63.50;;;;;;5031324;28;20278;-70
2023/08/10 15:43:30;;;;;;;5.90;3.57;;;22.60;62.90;;;;;;5016659;28;20045;-70
2023/08/10 15:45:56;;;;;;;5.10;2.80;;;22.50;62.00;;;;;;5032297;28;20057;-70
2023/08/10 15:48:22;;;;;;;4.03;1.87;;;22.40;62.50;;;;;;5003465;28;20068;-70
2023/08/10 15:50:47;;;;;;;3.07;1.80;;;22.30;61.20;;;;;;5026084;28;20433;-71
2023/08/10 15:53:14;;;;;;;3.77;1.60;;;22.40;62.20;;;;;;5024593;28;20461;-71
2023/08/10 15:55:40;;;;;;;2.63;1.87;;;22.40;61.60;;;;;;5031244;28;20044;-71
2023/08/10 15:58:06;;;;;;;4.83;2.10;;;22.40;61.90;;;;;;5027420;28;20025;-71
2023/08/10 16:00:32;;;;;;;4.53;2.30;;;22.50;61.90;;;;;;5027301;28;20094;-71